^^
Station Historical Data
Daily Summary for February 11, 2017 Units:  Both    English   Metric
« Previous Day
Next Day »
Daily Weekly Monthly Yearly Custom
  High: Low: Average:
Temperature: 82.8 °F /  28.2 °C 63.5 °F /  17.5 °C 69.3 °F /  20.7 °C
Dew Point: 66.4 °F /  19.1 °C 59.4 °F /  15.2 °C 62.9 °F /  17.2 °C
Humidity: 94% 47% 82%
Wind Speed: 8.9mph /  14.3km/h - 1mph /  1.6km/h
Wind Gust: 13.0mph /  20.9km/h - -
Wind- - South
Pressure: 29.80 in /  1009 hPa 29.67 in /  1004.6 hPa -
Precipitation: 0.16 in /  4.06 mm    
Historical Graphs
 
 
Tabular Data for February 11, 2017
Time Temperature Dew Point Pressure Wind Wind Speed Wind Gust Humidity Rainfall Rate (Hourly) solar Conditions
00:05 65.5 °F /  18.6 °C 62.4 °F /  16.9 °C 29.80in /  1009hPa Calm   2.0mph /  3.2km/h 90% 0.00in /  0mm 0.0 W/m2
00:11 65.5 °F /  18.6 °C 62.4 °F /  16.9 °C 29.80in /  1009hPa Calm     90% 0.00in /  0mm 0.0 W/m2
00:17 65.7 °F /  18.7 °C 62.6 °F /  17 °C 29.80in /  1009hPa Calm     90% 0.00in /  0mm 0.0 W/m2
00:23 65.7 °F /  18.7 °C 62.6 °F /  17 °C 29.80in /  1009hPa Calm     90% 0.00in /  0mm 0.0 W/m2
00:29 65.7 °F /  18.7 °C 62.6 °F /  17 °C 29.79in /  1008.7hPa Calm   1.0mph /  1.6km/h 90% 0.00in /  0mm 0.0 W/m2
00:35 65.7 °F /  18.7 °C 62.6 °F /  17 °C 29.79in /  1008.7hPa SSE 2.0mph /  3.2km/h 2.0mph /  3.2km/h 90% 0.00in /  0mm 0.0 W/m2
00:41 65.7 °F /  18.7 °C 62.6 °F /  17 °C 29.79in /  1008.7hPa Calm   2.0mph /  3.2km/h 90% 0.00in /  0mm 0.0 W/m2
00:47 65.8 °F /  18.8 °C 62.8 °F /  17.1 °C 29.79in /  1008.7hPa Calm   3.0mph /  4.8km/h 90% 0.00in /  0mm 0.0 W/m2
00:53 65.8 °F /  18.8 °C 62.8 °F /  17.1 °C 29.78in /  1008.4hPa SE 2.0mph /  3.2km/h 3.0mph /  4.8km/h 90% 0.00in /  0mm 0.0 W/m2
00:59 65.8 °F /  18.8 °C 62.8 °F /  17.1 °C 29.78in /  1008.4hPa SE 0.9mph /  1.4km/h 2.0mph /  3.2km/h 90% 0.00in /  0mm 0.0 W/m2
01:05 65.8 °F /  18.8 °C 62.8 °F /  17.1 °C 29.78in /  1008.4hPa SE 0.9mph /  1.4km/h 1.0mph /  1.6km/h 90% 0.00in /  0mm 0.0 W/m2
01:12 65.8 °F /  18.8 °C 62.8 °F /  17.1 °C 29.78in /  1008.4hPa Calm   1.0mph /  1.6km/h 90% 0.00in /  0mm 0.0 W/m2
01:18 65.8 °F /  18.8 °C 62.8 °F /  17.1 °C 29.78in /  1008.4hPa Calm   1.0mph /  1.6km/h 90% 0.00in /  0mm 0.0 W/m2
01:24 65.8 °F /  18.8 °C 62.8 °F /  17.1 °C 29.78in /  1008.4hPa Calm     90% 0.00in /  0mm 0.0 W/m2
01:30 65.8 °F /  18.8 °C 62.8 °F /  17.1 °C 29.78in /  1008.4hPa Calm     90% 0.00in /  0mm 0.0 W/m2
01:36 65.8 °F /  18.8 °C 62.8 °F /  17.1 °C 29.78in /  1008.4hPa Calm     90% 0.00in /  0mm 0.0 W/m2
01:42 65.7 °F /  18.7 °C 62.6 °F /  17 °C 29.78in /  1008.4hPa Calm     90% 0.00in /  0mm 0.0 W/m2
01:48 65.7 °F /  18.7 °C 62.6 °F /  17 °C 29.77in /  1008hPa Calm     90% 0.00in /  0mm 0.0 W/m2
01:54 65.7 °F /  18.7 °C 62.6 °F /  17 °C 29.78in /  1008.4hPa Calm     90% 0.00in /  0mm 0.0 W/m2
02:00 65.7 °F /  18.7 °C 62.6 °F /  17 °C 29.77in /  1008hPa Calm     90% 0.00in /  0mm 0.0 W/m2
02:06 65.7 °F /  18.7 °C 62.6 °F /  17 °C 29.78in /  1008.4hPa Calm     90% 0.00in /  0mm 0.0 W/m2
02:12 65.7 °F /  18.7 °C 62.6 °F /  17 °C 29.77in /  1008hPa NNE 0.9mph /  1.4km/h 1.0mph /  1.6km/h 90% 0.00in /  0mm 0.0 W/m2
02:19 65.7 °F /  18.7 °C 62.6 °F /  17 °C 29.77in /  1008hPa Calm     90% 0.00in /  0mm 0.0 W/m2
02:25 65.7 °F /  18.7 °C 62.6 °F /  17 °C 29.77in /  1008hPa Calm     90% 0.00in /  0mm 0.0 W/m2
02:31 65.7 °F /  18.7 °C 63.0 °F /  17.2 °C 29.77in /  1008hPa Calm     91% 0.00in /  0mm 0.0 W/m2
02:35 65.8 °F /  18.8 °C 63.1 °F /  17.3 °C 29.77in /  1008hPa Calm     91% 0.00in /  0mm 0.0 W/m2
02:41 65.8 °F /  18.8 °C 63.1 °F /  17.3 °C 29.77in /  1008hPa Calm     91% 0.00in /  0mm 0.0 W/m2
02:47 65.7 °F /  18.7 °C 63.3 °F /  17.4 °C 29.77in /  1008hPa Calm     92% 0.00in /  0mm 0.0 W/m2
02:53 65.7 °F /  18.7 °C 63.3 °F /  17.4 °C 29.77in /  1008hPa Calm     92% 0.00in /  0mm 0.0 W/m2
02:59 65.7 °F /  18.7 °C 63.3 °F /  17.4 °C 29.76in /  1007.7hPa ENE 0.9mph /  1.4km/h 3.0mph /  4.8km/h 92% 0.00in /  0mm 0.0 W/m2
03:05 65.7 °F /  18.7 °C 63.3 °F /  17.4 °C 29.76in /  1007.7hPa East 0.9mph /  1.4km/h 1.0mph /  1.6km/h 92% 0.00in /  0mm 0.0 W/m2
03:11 65.7 °F /  18.7 °C 63.3 °F /  17.4 °C 29.76in /  1007.7hPa Calm     92% 0.00in /  0mm 0.0 W/m2
03:17 65.7 °F /  18.7 °C 63.3 °F /  17.4 °C 29.75in /  1007.3hPa Calm   1.0mph /  1.6km/h 92% 0.00in /  0mm 0.0 W/m2
03:23 65.5 °F /  18.6 °C 62.8 °F /  17.1 °C 29.75in /  1007.3hPa Calm   1.0mph /  1.6km/h 91% 0.00in /  0mm 0.0 W/m2
03:29 65.5 °F /  18.6 °C 63.1 °F /  17.3 °C 29.75in /  1007.3hPa Calm     92% 0.00in /  0mm 0.0 W/m2
03:35 65.5 °F /  18.6 °C 63.1 °F /  17.3 °C 29.75in /  1007.3hPa Calm     92% 0.00in /  0mm 0.0 W/m2
03:42 65.5 °F /  18.6 °C 63.1 °F /  17.3 °C 29.75in /  1007.3hPa Calm     92% 0.00in /  0mm 0.0 W/m2
03:48 65.5 °F /  18.6 °C 63.1 °F /  17.3 °C 29.75in /  1007.3hPa Calm     92% 0.00in /  0mm 0.0 W/m2
03:54 65.5 °F /  18.6 °C 63.1 °F /  17.3 °C 29.75in /  1007.3hPa Calm   1.0mph /  1.6km/h 92% 0.00in /  0mm 0.0 W/m2
04:00 65.5 °F /  18.6 °C 63.1 °F /  17.3 °C 29.75in /  1007.3hPa Calm     92% 0.00in /  0mm 0.0 W/m2
04:06 65.5 °F /  18.6 °C 63.1 °F /  17.3 °C 29.75in /  1007.3hPa Calm   1.0mph /  1.6km/h 92% 0.00in /  0mm 0.0 W/m2
04:12 65.5 °F /  18.6 °C 63.1 °F /  17.3 °C 29.75in /  1007.3hPa Calm     92% 0.00in /  0mm 0.0 W/m2
04:18 65.5 °F /  18.6 °C 63.1 °F /  17.3 °C 29.75in /  1007.3hPa Calm     92% 0.00in /  0mm 0.0 W/m2
04:24 65.5 °F /  18.6 °C 63.1 °F /  17.3 °C 29.74in /  1007hPa Calm     92% 0.00in /  0mm 0.0 W/m2
04:30 65.3 °F /  18.5 °C 62.6 °F /  17 °C 29.74in /  1007hPa Calm     91% 0.00in /  0mm 0.0 W/m2
04:36 65.3 °F /  18.5 °C 62.6 °F /  17 °C 29.74in /  1007hPa Calm   2.0mph /  3.2km/h 91% 0.00in /  0mm 0.0 W/m2
04:42 65.5 °F /  18.6 °C 63.1 °F /  17.3 °C 29.74in /  1007hPa Calm     92% 0.00in /  0mm 0.0 W/m2
04:48 65.5 °F /  18.6 °C 63.1 °F /  17.3 °C 29.74in /  1007hPa Calm     92% 0.00in /  0mm 0.0 W/m2
04:54 65.5 °F /  18.6 °C 63.1 °F /  17.3 °C 29.74in /  1007hPa Calm   2.0mph /  3.2km/h 92% 0.00in /  0mm 0.0 W/m2
05:01 65.5 °F /  18.6 °C 63.1 °F /  17.3 °C 29.74in /  1007hPa Calm   1.0mph /  1.6km/h 92% 0.00in /  0mm 0.0 W/m2
05:07 65.5 °F /  18.6 °C 63.1 °F /  17.3 °C 29.74in /  1007hPa Calm   1.0mph /  1.6km/h 92% 0.00in /  0mm 0.0 W/m2
05:13 65.5 °F /  18.6 °C 63.1 °F /  17.3 °C 29.74in /  1007hPa Calm   2.0mph /  3.2km/h 92% 0.00in /  0mm 0.0 W/m2
05:19 65.5 °F /  18.6 °C 63.1 °F /  17.3 °C 29.74in /  1007hPa Calm     92% 0.00in /  0mm 0.0 W/m2
05:25 65.5 °F /  18.6 °C 63.1 °F /  17.3 °C 29.74in /  1007hPa East 0.9mph /  1.4km/h 2.0mph /  3.2km/h 92% 0.00in /  0mm 0.0 W/m2
05:31 65.3 °F /  18.5 °C 62.6 °F /  17 °C 29.74in /  1007hPa Calm   1.0mph /  1.6km/h 91% 0.00in /  0mm 0.0 W/m2
05:37 65.3 °F /  18.5 °C 62.6 °F /  17 °C 29.74in /  1007hPa Calm     91% 0.00in /  0mm 0.0 W/m2
05:43 65.1 °F /  18.4 °C 62.4 °F /  16.9 °C 29.74in /  1007hPa Calm     91% 0.00in /  0mm 0.0 W/m2
05:49 65.1 °F /  18.4 °C 62.4 °F /  16.9 °C 29.74in /  1007hPa Calm     91% 0.00in /  0mm 0.0 W/m2
05:56 65.1 °F /  18.4 °C 62.4 °F /  16.9 °C 29.74in /  1007hPa Calm     91% 0.00in /  0mm 0.0 W/m2
06:02 65.1 °F /  18.4 °C 62.4 °F /  16.9 °C 29.74in /  1007hPa Calm     91% 0.00in /  0mm 0.0 W/m2
06:08 64.9 °F /  18.3 °C 62.6 °F /  17 °C 29.74in /  1007hPa Calm     92% 0.00in /  0mm 0.0 W/m2
06:14 64.9 °F /  18.3 °C 62.6 °F /  17 °C 29.74in /  1007hPa Calm     92% 0.00in /  0mm 0.0 W/m2
06:20 64.9 °F /  18.3 °C 62.6 °F /  17 °C 29.74in /  1007hPa Calm     92% 0.00in /  0mm 0.0 W/m2
06:26 64.9 °F /  18.3 °C 62.6 °F /  17 °C 29.74in /  1007hPa Calm     92% 0.00in /  0mm 0.0 W/m2
06:32 64.9 °F /  18.3 °C 62.6 °F /  17 °C 29.74in /  1007hPa Calm     92% 0.00in /  0mm 0.0 W/m2
06:38 64.9 °F /  18.3 °C 62.8 °F /  17.1 °C 29.75in /  1007.3hPa Calm     93% 0.00in /  0mm 0.0 W/m2
06:44 64.9 °F /  18.3 °C 62.8 °F /  17.1 °C 29.75in /  1007.3hPa Calm     93% 0.00in /  0mm 0.0 W/m2
06:50 64.8 °F /  18.2 °C 62.4 °F /  16.9 °C 29.75in /  1007.3hPa Calm     92% 0.00in /  0mm 7.0 W/m2
06:56 64.9 °F /  18.3 °C 62.8 °F /  17.1 °C 29.75in /  1007.3hPa Calm     93% 0.00in /  0mm 19.0 W/m2
07:03 64.9 °F /  18.3 °C 62.8 °F /  17.1 °C 29.75in /  1007.3hPa Calm     93% 0.00in /  0mm 33.0 W/m2
07:09 64.9 °F /  18.3 °C 62.8 °F /  17.1 °C 29.75in /  1007.3hPa Calm     93% 0.00in /  0mm 39.0 W/m2
07:15 64.9 °F /  18.3 °C 62.8 °F /  17.1 °C 29.75in /  1007.3hPa Calm     93% 0.00in /  0mm 49.0 W/m2
07:21 65.1 °F /  18.4 °C 63.0 °F /  17.2 °C 29.76in /  1007.7hPa Calm     93% 0.00in /  0mm 56.0 W/m2
07:27 65.5 °F /  18.6 °C 63.3 °F /  17.4 °C 29.76in /  1007.7hPa Calm     93% 0.00in /  0mm 53.0 W/m2
07:33 65.5 °F /  18.6 °C 63.1 °F /  17.3 °C 29.76in /  1007.7hPa Calm     92% 0.00in /  0mm 46.0 W/m2
07:39 65.7 °F /  18.7 °C 63.3 °F /  17.4 °C 29.76in /  1007.7hPa Calm     92% 0.00in /  0mm 39.0 W/m2
07:45 65.8 °F /  18.8 °C 63.5 °F /  17.5 °C 29.76in /  1007.7hPa Calm     92% 0.00in /  0mm 37.0 W/m2
07:52 66.0 °F /  18.9 °C 62.6 °F /  17 °C 29.76in /  1007.7hPa Calm     89% 0.00in /  0mm 37.0 W/m2
07:57 66.4 °F /  19.1 °C 63.0 °F /  17.2 °C 29.76in /  1007.7hPa Calm     89% 0.00in /  0mm 40.0 W/m2
08:03 66.6 °F /  19.2 °C 63.0 °F /  17.2 °C 29.76in /  1007.7hPa Calm     88% 0.00in /  0mm 40.0 W/m2
08:10 66.7 °F /  19.3 °C 62.4 °F /  16.9 °C 29.76in /  1007.7hPa Calm     86% 0.00in /  0mm 46.0 W/m2
08:16 66.9 °F /  19.4 °C 62.2 °F /  16.8 °C 29.76in /  1007.7hPa Calm     85% 0.00in /  0mm 51.0 W/m2
08:22 67.5 °F /  19.7 °C 63.1 °F /  17.3 °C 29.76in /  1007.7hPa Calm     86% 0.00in /  0mm 60.0 W/m2
08:28 67.6 °F /  19.8 °C 62.6 °F /  17 °C 29.76in /  1007.7hPa Calm     84% 0.00in /  0mm 72.0 W/m2
08:34 68.2 °F /  20.1 °C 63.1 °F /  17.3 °C 29.76in /  1007.7hPa Calm     84% 0.00in /  0mm 95.0 W/m2
08:40 68.5 °F /  20.3 °C 63.5 °F /  17.5 °C 29.77in /  1008hPa Calm     84% 0.00in /  0mm 237.0 W/m2
08:46 69.1 °F /  20.6 °C 64.0 °F /  17.8 °C 29.77in /  1008hPa Calm     84% 0.00in /  0mm 251.0 W/m2
08:52 69.6 °F /  20.9 °C 64.2 °F /  17.9 °C 29.76in /  1007.7hPa Calm     83% 0.00in /  0mm 211.0 W/m2
08:58 70.2 °F /  21.2 °C 64.4 °F /  18 °C 29.76in /  1007.7hPa Calm     82% 0.00in /  0mm 234.0 W/m2
09:05 70.7 °F /  21.5 °C 64.9 °F /  18.3 °C 29.76in /  1007.7hPa Calm     82% 0.00in /  0mm 464.0 W/m2
09:11 71.4 °F /  21.9 °C 63.9 °F /  17.7 °C 29.76in /  1007.7hPa Calm   2.0mph /  3.2km/h 77% 0.00in /  0mm 538.0 W/m2
09:17 72.7 °F /  22.6 °C 63.1 °F /  17.3 °C 29.76in /  1007.7hPa NNE 0.9mph /  1.4km/h 1.0mph /  1.6km/h 72% 0.00in /  0mm 459.0 W/m2
09:23 73.8 °F /  23.2 °C 63.7 °F /  17.6 °C 29.76in /  1007.7hPa NNE 2.0mph /  3.2km/h 5.0mph /  8km/h 71% 0.00in /  0mm 279.0 W/m2
09:29 74.5 °F /  23.6 °C 64.4 °F /  18 °C 29.76in /  1007.7hPa NNE 2.0mph /  3.2km/h 5.0mph /  8km/h 71% 0.00in /  0mm 635.0 W/m2
09:35 75.2 °F /  24 °C 64.8 °F /  18.2 °C 29.76in /  1007.7hPa NNE 0.9mph /  1.4km/h 3.0mph /  4.8km/h 70% 0.00in /  0mm 654.0 W/m2
09:41 75.9 °F /  24.4 °C 65.8 °F /  18.8 °C 29.76in /  1007.7hPa East 0.9mph /  1.4km/h 2.0mph /  3.2km/h 71% 0.00in /  0mm 675.0 W/m2
09:48 76.6 °F /  24.8 °C 65.7 °F /  18.7 °C 29.76in /  1007.7hPa East 2.9mph /  4.7km/h 4.0mph /  6.4km/h 69% 0.00in /  0mm 659.0 W/m2
09:54 76.8 °F /  24.9 °C 64.6 °F /  18.1 °C 29.76in /  1007.7hPa ENE 0.9mph /  1.4km/h 5.0mph /  8km/h 66% 0.00in /  0mm 151.0 W/m2
10:02 76.3 °F /  24.6 °C 64.9 °F /  18.3 °C 29.76in /  1007.7hPa SE 2.9mph /  4.7km/h 4.0mph /  6.4km/h 68% 0.00in /  0mm 165.0 W/m2
10:08 75.9 °F /  24.4 °C 64.6 °F /  18.1 °C 29.75in /  1007.3hPa ENE 2.0mph /  3.2km/h 4.0mph /  6.4km/h 68% 0.00in /  0mm 390.0 W/m2
10:14 75.9 °F /  24.4 °C 63.7 °F /  17.6 °C 29.75in /  1007.3hPa Calm   3.0mph /  4.8km/h 66% 0.00in /  0mm 290.0 W/m2
10:20 76.3 °F /  24.6 °C 64.9 °F /  18.3 °C 29.76in /  1007.7hPa ENE 0.9mph /  1.4km/h 6.0mph /  9.7km/h 68% 0.00in /  0mm 290.0 W/m2
10:26 76.3 °F /  24.6 °C 64.9 °F /  18.3 °C 29.75in /  1007.3hPa SE 2.0mph /  3.2km/h 5.0mph /  8km/h 68% 0.00in /  0mm 492.0 W/m2
10:33 76.5 °F /  24.7 °C 64.8 °F /  18.2 °C 29.75in /  1007.3hPa NE 2.9mph /  4.7km/h 4.0mph /  6.4km/h 67% 0.00in /  0mm 227.0 W/m2
10:39 76.5 °F /  24.7 °C 64.8 °F /  18.2 °C 29.75in /  1007.3hPa North 0.9mph /  1.4km/h 1.0mph /  1.6km/h 67% 0.00in /  0mm 316.0 W/m2
10:45 76.6 °F /  24.8 °C 64.4 °F /  18 °C 29.75in /  1007.3hPa NNE 2.0mph /  3.2km/h 3.0mph /  4.8km/h 66% 0.00in /  0mm 865.0 W/m2
10:51 76.8 °F /  24.9 °C 63.7 °F /  17.6 °C 29.75in /  1007.3hPa North 2.0mph /  3.2km/h 3.0mph /  4.8km/h 64% 0.00in /  0mm 216.0 W/m2
10:57 76.6 °F /  24.8 °C 63.1 °F /  17.3 °C 29.75in /  1007.3hPa NE 0.9mph /  1.4km/h 2.0mph /  3.2km/h 63% 0.00in /  0mm 504.0 W/m2
11:03 77.0 °F /  25 °C 63.9 °F /  17.7 °C 29.75in /  1007.3hPa Calm   3.0mph /  4.8km/h 64% 0.00in /  0mm 1056.0 W/m2
11:09 78.3 °F /  25.7 °C 63.3 °F /  17.4 °C 29.75in /  1007.3hPa East 2.9mph /  4.7km/h 7.0mph /  11.3km/h 60% 0.00in /  0mm 1097.0 W/m2
11:15 79.2 °F /  26.2 °C 63.7 °F /  17.6 °C 29.74in /  1007hPa NNW 2.9mph /  4.7km/h 6.0mph /  9.7km/h 59% 0.00in /  0mm 937.0 W/m2
11:21 79.5 °F /  26.4 °C 63.5 °F /  17.5 °C 29.74in /  1007hPa NW 4.9mph /  7.9km/h 7.0mph /  11.3km/h 58% 0.00in /  0mm 967.0 W/m2
11:28 80.1 °F /  26.7 °C 63.0 °F /  17.2 °C 29.74in /  1007hPa Calm   6.0mph /  9.7km/h 56% 0.00in /  0mm 886.0 W/m2
11:34 80.6 °F /  27 °C 61.3 °F /  16.3 °C 29.74in /  1007hPa NW 0.9mph /  1.4km/h 4.0mph /  6.4km/h 52% 0.00in /  0mm 1021.0 W/m2
11:40 81.1 °F /  27.3 °C 63.0 °F /  17.2 °C 29.74in /  1007hPa WSW 2.0mph /  3.2km/h 2.0mph /  3.2km/h 54% 0.00in /  0mm 969.0 W/m2
11:46 81.5 °F /  27.5 °C 61.7 °F /  16.5 °C 29.74in /  1007hPa West 2.9mph /  4.7km/h 4.0mph /  6.4km/h 51% 0.00in /  0mm 1088.0 W/m2
11:52 81.7 °F /  27.6 °C 62.4 °F /  16.9 °C 29.73in /  1006.7hPa NNE 2.0mph /  3.2km/h 8.0mph /  12.9km/h 52% 0.00in /  0mm 1123.0 W/m2
11:58 82.2 °F /  27.9 °C 62.8 °F /  17.1 °C 29.73in /  1006.7hPa NE 2.9mph /  4.7km/h 8.0mph /  12.9km/h 52% 0.00in /  0mm 336.0 W/m2
12:04 82.2 °F /  27.9 °C 63.9 °F /  17.7 °C 29.73in /  1006.7hPa NW 2.9mph /  4.7km/h 5.0mph /  8km/h 54% 0.00in /  0mm 1164.0 W/m2
12:10 82.6 °F /  28.1 °C 63.1 °F /  17.3 °C 29.73in /  1006.7hPa NNW 4.9mph /  7.9km/h 8.0mph /  12.9km/h 52% 0.00in /  0mm 411.0 W/m2
12:17 82.2 °F /  27.9 °C 59.9 °F /  15.5 °C 29.72in /  1006.3hPa North 4.0mph /  6.4km/h 8.0mph /  12.9km/h 47% 0.00in /  0mm 1118.0 W/m2
12:23 82.8 °F /  28.2 °C 63.9 °F /  17.7 °C 29.72in /  1006.3hPa NNW 6.0mph /  9.7km/h 11.0mph /  17.7km/h 53% 0.00in /  0mm 1137.0 W/m2
12:29 82.8 °F /  28.2 °C 63.3 °F /  17.4 °C 29.72in /  1006.3hPa NNE 6.9mph /  11.1km/h 13.0mph /  20.9km/h 52% 0.00in /  0mm 1257.0 W/m2
12:35 82.6 °F /  28.1 °C 63.7 °F /  17.6 °C 29.72in /  1006.3hPa NNW 6.9mph /  11.1km/h 8.0mph /  12.9km/h 53% 0.00in /  0mm 1273.0 W/m2
12:41 82.6 °F /  28.1 °C 63.1 °F /  17.3 °C 29.72in /  1006.3hPa NNE 4.0mph /  6.4km/h 8.0mph /  12.9km/h 52% 0.00in /  0mm 728.0 W/m2
12:47 81.5 °F /  27.5 °C 62.8 °F /  17.1 °C 29.71in /  1006hPa North 8.1mph /  13km/h 11.0mph /  17.7km/h 53% 0.00in /  0mm 427.0 W/m2
12:53 80.1 °F /  26.7 °C 61.9 °F /  16.6 °C 29.71in /  1006hPa NNW 4.9mph /  7.9km/h 10.0mph /  16.1km/h 54% 0.00in /  0mm 374.0 W/m2
13:00 79.5 °F /  26.4 °C 63.0 °F /  17.2 °C 29.71in /  1006hPa North 2.9mph /  4.7km/h 5.0mph /  8km/h 57% 0.00in /  0mm 366.0 W/m2
13:06 79.2 °F /  26.2 °C 63.7 °F /  17.6 °C 29.71in /  1006hPa NNW 8.9mph /  14.3km/h 11.0mph /  17.7km/h 59% 0.00in /  0mm 410.0 W/m2
13:12 79.0 °F /  26.1 °C 63.9 °F /  17.7 °C 29.71in /  1006hPa NNW 2.9mph /  4.7km/h 10.0mph /  16.1km/h 60% 0.00in /  0mm 459.0 W/m2
13:18 78.8 °F /  26 °C 63.7 °F /  17.6 °C 29.71in /  1006hPa NW 2.0mph /  3.2km/h 6.0mph /  9.7km/h 60% 0.00in /  0mm 468.0 W/m2
13:24 79.0 °F /  26.1 °C 63.9 °F /  17.7 °C 29.72in /  1006.3hPa West 2.0mph /  3.2km/h 5.0mph /  8km/h 60% 0.00in /  0mm 476.0 W/m2
13:30 78.4 °F /  25.8 °C 60.4 °F /  15.8 °C 29.72in /  1006.3hPa Calm   8.0mph /  12.9km/h 54% 0.00in /  0mm 229.0 W/m2
13:36 77.4 °F /  25.2 °C 60.4 °F /  15.8 °C 29.72in /  1006.3hPa WSW 2.9mph /  4.7km/h 7.0mph /  11.3km/h 56% 0.00in /  0mm 239.0 W/m2
13:43 76.5 °F /  24.7 °C 62.4 °F /  16.9 °C 29.72in /  1006.3hPa SSW 2.9mph /  4.7km/h 3.0mph /  4.8km/h 62% 0.00in /  0mm 299.0 W/m2
13:49 76.5 °F /  24.7 °C 62.4 °F /  16.9 °C 29.71in /  1006hPa Calm   2.0mph /  3.2km/h 62% 0.00in /  0mm 320.0 W/m2
13:55 76.6 °F /  24.8 °C 62.6 °F /  17 °C 29.71in /  1006hPa Calm   1.0mph /  1.6km/h 62% 0.00in /  0mm 329.0 W/m2
14:01 77.2 °F /  25.1 °C 62.2 °F /  16.8 °C 29.71in /  1006hPa Calm   1.0mph /  1.6km/h 60% 0.00in /  0mm 376.0 W/m2
14:07 77.5 °F /  25.3 °C 63.5 °F /  17.5 °C 29.71in /  1006hPa North 4.0mph /  6.4km/h 7.0mph /  11.3km/h 62% 0.00in /  0mm 360.0 W/m2
14:13 77.7 °F /  25.4 °C 63.7 °F /  17.6 °C 29.70in /  1005.6hPa NW 4.0mph /  6.4km/h 8.0mph /  12.9km/h 62% 0.00in /  0mm 366.0 W/m2
14:20 77.4 °F /  25.2 °C 63.9 °F /  17.7 °C 29.70in /  1005.6hPa SW 0.9mph /  1.4km/h 3.0mph /  4.8km/h 63% 0.00in /  0mm 352.0 W/m2
14:26 76.6 °F /  24.8 °C 64.4 °F /  18 °C 29.70in /  1005.6hPa Calm   4.0mph /  6.4km/h 66% 0.00in /  0mm 406.0 W/m2
14:32 76.5 °F /  24.7 °C 64.2 °F /  17.9 °C 29.69in /  1005.3hPa Calm   1.0mph /  1.6km/h 66% 0.00in /  0mm 436.0 W/m2
14:38 76.6 °F /  24.8 °C 64.4 °F /  18 °C 29.68in /  1005hPa SE 2.0mph /  3.2km/h 2.0mph /  3.2km/h 66% 0.00in /  0mm 264.0 W/m2
14:44 77.0 °F /  25 °C 63.9 °F /  17.7 °C 29.67in /  1004.6hPa NNW 0.9mph /  1.4km/h 3.0mph /  4.8km/h 64% 0.00in /  0mm 316.0 W/m2
14:50 77.5 °F /  25.3 °C 63.5 °F /  17.5 °C 29.68in /  1005hPa NNW 2.9mph /  4.7km/h 5.0mph /  8km/h 62% 0.00in /  0mm 225.0 W/m2
14:56 78.1 °F /  25.6 °C 63.5 °F /  17.5 °C 29.70in /  1005.6hPa North 2.0mph /  3.2km/h 6.0mph /  9.7km/h 61% 0.00in /  0mm 107.0 W/m2
15:02 77.7 °F /  25.4 °C 62.2 °F /  16.8 °C 29.69in /  1005.3hPa North 2.0mph /  3.2km/h 6.0mph /  9.7km/h 59% 0.00in /  0mm 109.0 W/m2
15:04 77.7 °F /  25.4 °C 63.1 °F /  17.3 °C 29.69in /  1005.3hPa NW 0.9mph /  1.4km/h 4.0mph /  6.4km/h 61% 0.00in /  0mm 111.0 W/m2
15:11 77.5 °F /  25.3 °C 62.6 °F /  17 °C 29.69in /  1005.3hPa NNE 4.0mph /  6.4km/h 7.0mph /  11.3km/h 60% 0.00in /  0mm 102.0 W/m2
15:17 77.2 °F /  25.1 °C 63.1 °F /  17.3 °C 29.70in /  1005.6hPa SSW 2.0mph /  3.2km/h 8.0mph /  12.9km/h 62% 0.00in /  0mm 56.0 W/m2
15:23 74.7 °F /  23.7 °C 61.2 °F /  16.2 °C 29.70in /  1005.6hPa SW 8.1mph /  13km/h 10.0mph /  16.1km/h 63% 0.00in /  0mm 79.0 W/m2
15:29 72.7 °F /  22.6 °C 60.6 °F /  15.9 °C 29.70in /  1005.6hPa SW 4.9mph /  7.9km/h 8.0mph /  12.9km/h 66% 0.00in /  0mm 83.0 W/m2
15:35 71.4 °F /  21.9 °C 60.3 °F /  15.7 °C 29.70in /  1005.6hPa South 2.0mph /  3.2km/h 9.0mph /  14.5km/h 68% 0.00in /  0mm 60.0 W/m2
15:41 70.9 °F /  21.6 °C 60.3 °F /  15.7 °C 29.70in /  1005.6hPa South 2.0mph /  3.2km/h 9.0mph /  14.5km/h 69% 0.00in /  0mm 33.0 W/m2
15:47 70.7 °F /  21.5 °C 60.4 °F /  15.8 °C 29.70in /  1005.6hPa SSW 6.9mph /  11.1km/h 8.0mph /  12.9km/h 70% 0.00in /  0mm 32.0 W/m2
15:53 70.5 °F /  21.4 °C 61.0 °F /  16.1 °C 29.70in /  1005.6hPa Calm   1.0mph /  1.6km/h 72% 0.00in /  0mm 26.0 W/m2
16:00 70.5 °F /  21.4 °C 63.3 °F /  17.4 °C 29.70in /  1005.6hPa SSW 0.9mph /  1.4km/h 5.0mph /  8km/h 78% 0.01in /  0.25mm 21.0 W/m2
16:06 70.3 °F /  21.3 °C 63.5 °F /  17.5 °C 29.70in /  1005.6hPa SE 0.9mph /  1.4km/h 3.0mph /  4.8km/h 79% 0.02in /  0.51mm 23.0 W/m2
16:12 70.0 °F /  21.1 °C 63.5 °F /  17.5 °C 29.69in /  1005.3hPa SSE 0.9mph /  1.4km/h 2.0mph /  3.2km/h 80% 0.02in /  0.51mm 28.0 W/m2
16:18 69.6 °F /  20.9 °C 64.2 °F /  17.9 °C 29.68in /  1005hPa East 0.9mph /  1.4km/h 2.0mph /  3.2km/h 83% 0.02in /  0.51mm 40.0 W/m2
16:24 69.3 °F /  20.7 °C 63.9 °F /  17.7 °C 29.68in /  1005hPa SE 2.9mph /  4.7km/h 6.0mph /  9.7km/h 83% 0.02in /  0.51mm 46.0 W/m2
16:28 69.1 °F /  20.6 °C 63.7 °F /  17.6 °C 29.68in /  1005hPa SSE 2.9mph /  4.7km/h 5.0mph /  8km/h 83% 0.02in /  0.51mm 44.0 W/m2
16:34 68.7 °F /  20.4 °C 62.6 °F /  17 °C 29.68in /  1005hPa Calm   4.0mph /  6.4km/h 81% 0.02in /  0.51mm 46.0 W/m2
16:41 68.7 °F /  20.4 °C 63.0 °F /  17.2 °C 29.68in /  1005hPa SE 2.0mph /  3.2km/h 2.0mph /  3.2km/h 82% 0.02in /  0.51mm 47.0 W/m2
16:47 68.7 °F /  20.4 °C 62.6 °F /  17 °C 29.69in /  1005.3hPa Calm   2.0mph /  3.2km/h 81% 0.02in /  0.51mm 49.0 W/m2
16:53 68.7 °F /  20.4 °C 63.3 °F /  17.4 °C 29.68in /  1005hPa Calm     83% 0.02in /  0.51mm 63.0 W/m2
16:59 69.1 °F /  20.6 °C 64.4 °F /  18 °C 29.68in /  1005hPa NNE 2.9mph /  4.7km/h 5.0mph /  8km/h 85% 0.02in /  0.51mm 69.0 W/m2
17:05 69.1 °F /  20.6 °C 64.4 °F /  18 °C 29.68in /  1005hPa Calm     85% 0.02in /  0.51mm 67.0 W/m2
17:11 69.1 °F /  20.6 °C 64.8 °F /  18.2 °C 29.68in /  1005hPa Calm   3.0mph /  4.8km/h 86% 0.02in /  0.51mm 51.0 W/m2
17:17 69.1 °F /  20.6 °C 64.8 °F /  18.2 °C 29.68in /  1005hPa Calm     86% 0.01in /  0.25mm 40.0 W/m2
17:23 69.1 °F /  20.6 °C 64.8 °F /  18.2 °C 29.69in /  1005.3hPa Calm     86% 0.01in /  0.25mm 32.0 W/m2
17:30 69.3 °F /  20.7 °C 65.3 °F /  18.5 °C 29.69in /  1005.3hPa Calm     87% 0.01in /  0.25mm 26.0 W/m2
17:36 69.3 °F /  20.7 °C 64.9 °F /  18.3 °C 29.69in /  1005.3hPa Calm     86% 0.01in /  0.25mm 23.0 W/m2
17:42 69.3 °F /  20.7 °C 64.9 °F /  18.3 °C 29.68in /  1005hPa Calm     86% 0.01in /  0.25mm 23.0 W/m2
17:48 69.3 °F /  20.7 °C 65.3 °F /  18.5 °C 29.69in /  1005.3hPa Calm   1.0mph /  1.6km/h 87% 0.01in /  0.25mm 25.0 W/m2
17:54 69.3 °F /  20.7 °C 65.5 °F /  18.6 °C 29.70in /  1005.6hPa Calm   2.0mph /  3.2km/h 88% 0.01in /  0.25mm 25.0 W/m2
18:00 69.3 °F /  20.7 °C 65.3 °F /  18.5 °C 29.70in /  1005.6hPa SW 0.9mph /  1.4km/h 2.0mph /  3.2km/h 87% 0.01in /  0.25mm 28.0 W/m2
18:06 69.3 °F /  20.7 °C 65.5 °F /  18.6 °C 29.70in /  1005.6hPa Calm   1.0mph /  1.6km/h 88% 0.02in /  0.51mm 37.0 W/m2
18:12 69.3 °F /  20.7 °C 65.5 °F /  18.6 °C 29.71in /  1006hPa Calm   3.0mph /  4.8km/h 88% 0.03in /  0.76mm 35.0 W/m2
18:19 69.1 °F /  20.6 °C 65.7 °F /  18.7 °C 29.71in /  1006hPa Calm     89% 0.03in /  0.76mm 28.0 W/m2
18:25 69.1 °F /  20.6 °C 66.0 °F /  18.9 °C 29.71in /  1006hPa Calm   1.0mph /  1.6km/h 90% 0.04in /  1.02mm 28.0 W/m2
18:31 69.1 °F /  20.6 °C 66.4 °F /  19.1 °C 29.71in /  1006hPa Calm     91% 0.04in /  1.02mm 28.0 W/m2
18:37 68.7 °F /  20.4 °C 65.7 °F /  18.7 °C 29.72in /  1006.3hPa West 2.9mph /  4.7km/h 3.0mph /  4.8km/h 90% 0.04in /  1.02mm 21.0 W/m2
18:43 68.7 °F /  20.4 °C 65.7 °F /  18.7 °C 29.73in /  1006.7hPa West 2.0mph /  3.2km/h 3.0mph /  4.8km/h 90% 0.04in /  1.02mm 0.0 W/m2
18:49 68.2 °F /  20.1 °C 63.9 °F /  17.7 °C 29.73in /  1006.7hPa NNW 8.9mph /  14.3km/h 11.0mph /  17.7km/h 86% 0.04in /  1.02mm 0.0 W/m2
18:55 67.5 °F /  19.7 °C 61.3 °F /  16.3 °C 29.74in /  1007hPa WNW 4.0mph /  6.4km/h 13.0mph /  20.9km/h 81% 0.03in /  0.76mm 0.0 W/m2
19:01 66.4 °F /  19.1 °C 60.4 °F /  15.8 °C 29.74in /  1007hPa SSW 2.0mph /  3.2km/h 2.0mph /  3.2km/h 81% 0.02in /  0.51mm 5.0 W/m2
19:08 65.7 °F /  18.7 °C 60.4 °F /  15.8 °C 29.74in /  1007hPa Calm   5.0mph /  8km/h 83% 0.03in /  0.76mm 0.0 W/m2
19:14 65.1 °F /  18.4 °C 60.1 °F /  15.6 °C 29.75in /  1007.3hPa WSW 4.9mph /  7.9km/h 10.0mph /  16.1km/h 84% 0.05in /  1.27mm 0.0 W/m2
19:20 64.8 °F /  18.2 °C 60.1 °F /  15.6 °C 29.75in /  1007.3hPa South 4.0mph /  6.4km/h 5.0mph /  8km/h 85% 0.05in /  1.27mm 0.0 W/m2
19:26 64.2 °F /  17.9 °C 59.4 °F /  15.2 °C 29.75in /  1007.3hPa Calm   2.0mph /  3.2km/h 84% 0.04in /  1.02mm 0.0 W/m2
19:32 64.0 °F /  17.8 °C 59.7 °F /  15.4 °C 29.75in /  1007.3hPa Calm   2.0mph /  3.2km/h 86% 0.04in /  1.02mm 0.0 W/m2
19:38 63.7 °F /  17.6 °C 59.4 °F /  15.2 °C 29.76in /  1007.7hPa Calm     86% 0.06in /  1.52mm 0.0 W/m2
19:44 63.7 °F /  17.6 °C 60.1 °F /  15.6 °C 29.76in /  1007.7hPa Calm     88% 0.06in /  1.52mm 0.0 W/m2
19:51 63.7 °F /  17.6 °C 60.4 °F /  15.8 °C 29.76in /  1007.7hPa Calm     89% 0.06in /  1.52mm 0.0 W/m2
19:57 63.5 °F /  17.5 °C 60.3 °F /  15.7 °C 29.76in /  1007.7hPa SW 0.9mph /  1.4km/h 1.0mph /  1.6km/h 89% 0.07in /  1.78mm 0.0 W/m2
20:03 63.7 °F /  17.6 °C 60.6 °F /  15.9 °C 29.76in /  1007.7hPa WSW 2.0mph /  3.2km/h 2.0mph /  3.2km/h 90% 0.07in /  1.78mm 0.0 W/m2
20:09 63.5 °F /  17.5 °C 60.3 °F /  15.7 °C 29.76in /  1007.7hPa Calm     89% 0.05in /  1.27mm 0.0 W/m2
20:15 63.5 °F /  17.5 °C 60.4 °F /  15.8 °C 29.76in /  1007.7hPa Calm   1.0mph /  1.6km/h 90% 0.03in /  0.76mm 0.0 W/m2
20:21 63.7 °F /  17.6 °C 61.0 °F /  16.1 °C 29.76in /  1007.7hPa Calm     91% 0.03in /  0.76mm 0.0 W/m2
20:27 63.7 °F /  17.6 °C 61.0 °F /  16.1 °C 29.75in /  1007.3hPa Calm     91% 0.03in /  0.76mm 0.0 W/m2
20:33 63.9 °F /  17.7 °C 61.5 °F /  16.4 °C 29.75in /  1007.3hPa Calm     92% 0.03in /  0.76mm 0.0 W/m2
20:40 63.9 °F /  17.7 °C 61.5 °F /  16.4 °C 29.75in /  1007.3hPa Calm   2.0mph /  3.2km/h 92% 0.02in /  0.51mm 0.0 W/m2
20:46 64.0 °F /  17.8 °C 61.7 °F /  16.5 °C 29.74in /  1007hPa Calm   1.0mph /  1.6km/h 92% 0.02in /  0.51mm 0.0 W/m2
20:52 64.2 °F /  17.9 °C 62.2 °F /  16.8 °C 29.75in /  1007.3hPa Calm   1.0mph /  1.6km/h 93% 0.02in /  0.51mm 0.0 W/m2
20:58 64.4 °F /  18 °C 62.4 °F /  16.9 °C 29.75in /  1007.3hPa Calm     93% 0.02in /  0.51mm 0.0 W/m2
21:04 64.6 °F /  18.1 °C 62.4 °F /  16.9 °C 29.76in /  1007.7hPa Calm     93% 0.02in /  0.51mm 0.0 W/m2
21:10 64.8 °F /  18.2 °C 62.6 °F /  17 °C 29.75in /  1007.3hPa Calm   3.0mph /  4.8km/h 93% 0.02in /  0.51mm 0.0 W/m2
21:16 64.9 °F /  18.3 °C 62.8 °F /  17.1 °C 29.76in /  1007.7hPa Calm   1.0mph /  1.6km/h 93% 0.02in /  0.51mm 0.0 W/m2
21:23 64.9 °F /  18.3 °C 62.8 °F /  17.1 °C 29.76in /  1007.7hPa Calm     93% 0.02in /  0.51mm 0.0 W/m2
21:29 64.8 °F /  18.2 °C 62.6 °F /  17 °C 29.76in /  1007.7hPa Calm     93% 0.01in /  0.25mm 0.0 W/m2
21:35 64.8 °F /  18.2 °C 62.6 °F /  17 °C 29.76in /  1007.7hPa Calm   1.0mph /  1.6km/h 93% 0.01in /  0.25mm 0.0 W/m2
21:41 64.8 °F /  18.2 °C 62.6 °F /  17 °C 29.76in /  1007.7hPa Calm     93% 0.00in /  0mm 0.0 W/m2
21:47 64.6 °F /  18.1 °C 62.4 °F /  16.9 °C 29.76in /  1007.7hPa Calm   1.0mph /  1.6km/h 93% 0.00in /  0mm 0.0 W/m2
21:53 64.6 °F /  18.1 °C 62.4 °F /  16.9 °C 29.77in /  1008hPa Calm     93% 0.00in /  0mm 0.0 W/m2
21:59 64.6 °F /  18.1 °C 62.4 °F /  16.9 °C 29.77in /  1008hPa Calm     93% 0.00in /  0mm 0.0 W/m2
22:03 64.6 °F /  18.1 °C 62.4 °F /  16.9 °C 29.77in /  1008hPa ENE 0.9mph /  1.4km/h 1.0mph /  1.6km/h 93% 0.00in /  0mm 0.0 W/m2
22:09 64.6 °F /  18.1 °C 62.8 °F /  17.1 °C 29.78in /  1008.4hPa Calm   3.0mph /  4.8km/h 94% 0.00in /  0mm 0.0 W/m2
22:16 64.6 °F /  18.1 °C 62.4 °F /  16.9 °C 29.78in /  1008.4hPa Calm   2.0mph /  3.2km/h 93% 0.00in /  0mm 0.0 W/m2
22:22 64.4 °F /  18 °C 62.6 °F /  17 °C 29.77in /  1008hPa Calm     94% 0.00in /  0mm 0.0 W/m2
22:28 64.4 °F /  18 °C 62.6 °F /  17 °C 29.78in /  1008.4hPa Calm     94% 0.00in /  0mm 0.0 W/m2
22:34 64.6 °F /  18.1 °C 62.8 °F /  17.1 °C 29.78in /  1008.4hPa Calm     94% 0.00in /  0mm 0.0 W/m2
22:40 64.6 °F /  18.1 °C 62.8 °F /  17.1 °C 29.78in /  1008.4hPa Calm     94% 0.00in /  0mm 0.0 W/m2
22:46 64.6 °F /  18.1 °C 62.8 °F /  17.1 °C 29.78in /  1008.4hPa Calm     94% 0.00in /  0mm 0.0 W/m2
22:52 64.6 °F /  18.1 °C 62.8 °F /  17.1 °C 29.78in /  1008.4hPa Calm     94% 0.00in /  0mm 0.0 W/m2
22:59 64.6 °F /  18.1 °C 62.8 °F /  17.1 °C 29.77in /  1008hPa Calm     94% 0.00in /  0mm 0.0 W/m2
23:05 64.6 °F /  18.1 °C 62.8 °F /  17.1 °C 29.78in /  1008.4hPa SSE 2.0mph /  3.2km/h 2.0mph /  3.2km/h 94% 0.00in /  0mm 0.0 W/m2
23:11 64.6 °F /  18.1 °C 62.8 °F /  17.1 °C 29.78in /  1008.4hPa Calm   2.0mph /  3.2km/h 94% 0.00in /  0mm 0.0 W/m2
23:17 64.6 °F /  18.1 °C 62.8 °F /  17.1 °C 29.78in /  1008.4hPa Calm   2.0mph /  3.2km/h 94% 0.00in /  0mm 0.0 W/m2
23:23 64.0 °F /  17.8 °C 61.3 °F /  16.3 °C 29.78in /  1008.4hPa Calm   5.0mph /  8km/h 91% 0.00in /  0mm 0.0 W/m2
23:29 63.9 °F /  17.7 °C 60.8 °F /  16 °C 29.78in /  1008.4hPa Calm   4.0mph /  6.4km/h 90% 0.00in /  0mm 0.0 W/m2
23:35 63.9 °F /  17.7 °C 60.3 °F /  15.7 °C 29.78in /  1008.4hPa Calm   7.0mph /  11.3km/h 88% 0.00in /  0mm 0.0 W/m2
23:41 63.9 °F /  17.7 °C 59.9 °F /  15.5 °C 29.77in /  1008hPa SSE 2.0mph /  3.2km/h 8.0mph /  12.9km/h 87% 0.00in /  0mm 0.0 W/m2
23:47 64.2 °F /  17.9 °C 59.9 °F /  15.5 °C 29.77in /  1008hPa Calm   3.0mph /  4.8km/h 86% 0.00in /  0mm 0.0 W/m2
23:53 64.2 °F /  17.9 °C 59.9 °F /  15.5 °C 29.78in /  1008.4hPa SSE 0.9mph /  1.4km/h 3.0mph /  4.8km/h 86% 0.00in /  0mm 0.0 W/m2
23:59 64.2 °F /  17.9 °C 60.3 °F /  15.7 °C 29.77in /  1008hPa Calm     87% 0.00in /  0mm 0.0 W/m2
Olympia, Windhoek, Namibia
Compliments of Weather Underground - 3 mb